アダック島 の空港の天気 - METARとTAF

アダック空港 ( PADK / ADK ) - アメリカ アラスカ州アダック島
飛行場実況気象(Metar)
観測時間10/22 03:45 AKDT (10/22 11:45 UTC)
風向・風速南南西 6m/s 瞬間風速11m/s
視程10km以上
天気現象弱い雨
全天の4割程度の雲 雲底高度 760m
全天の8割程度の雲 雲底高度 1100m
全天を覆う雲 雲底高度 1830m
気温5℃
湿度87%
気圧984hPa
METARPADK 221145Z AUTO 20011G21KT 10SM -RA SCT025 BKN036 OVC060 05/03 A2906 RMK AO2 RAE01B20 P0000
過去の天気等 Google飛行場航空写真 Wunderground天気予報

過去48時間のMETAR

飛行場予報(TAF)
データがありません